sensor_id;sensor_type;location;lat;lon;timestamp;temperature;humidity
44229;DHT22;29904;51.058;5.378;2024-03-02T00:00:25;9.00;99.90
44229;DHT22;29904;51.058;5.378;2024-03-02T00:02:52;8.50;99.90
44229;DHT22;29904;51.058;5.378;2024-03-02T00:05:20;8.20;99.90
44229;DHT22;29904;51.058;5.378;2024-03-02T00:07:47;8.00;99.90
44229;DHT22;29904;51.058;5.378;2024-03-02T00:10:19;7.90;99.90
44229;DHT22;29904;51.058;5.378;2024-03-02T00:12:45;7.70;99.90
44229;DHT22;29904;51.058;5.378;2024-03-02T00:17:44;7.50;99.90
44229;DHT22;29904;51.058;5.378;2024-03-02T00:20:21;7.40;99.90
44229;DHT22;29904;51.058;5.378;2024-03-02T00:22:47;7.30;99.90
44229;DHT22;29904;51.058;5.378;2024-03-02T00:25:12;7.30;99.90
44229;DHT22;29904;51.058;5.378;2024-03-02T00:27:38;7.20;99.90
44229;DHT22;29904;51.058;5.378;2024-03-02T00:32:53;7.20;99.90
44229;DHT22;29904;51.058;5.378;2024-03-02T00:35:18;7.10;99.90
44229;DHT22;29904;51.058;5.378;2024-03-02T00:37:46;7.10;99.90
44229;DHT22;29904;51.058;5.378;2024-03-02T00:40:11;7.10;99.90
44229;DHT22;29904;51.058;5.378;2024-03-02T00:42:38;7.00;99.90
44229;DHT22;29904;51.058;5.378;2024-03-02T00:45:07;7.00;99.90
44229;DHT22;29904;51.058;5.378;2024-03-02T00:47:37;7.10;99.90
44229;DHT22;29904;51.058;5.378;2024-03-02T00:50:03;7.00;99.90
44229;DHT22;29904;51.058;5.378;2024-03-02T00:52:29;7.10;99.90
44229;DHT22;29904;51.058;5.378;2024-03-02T00:54:57;7.00;99.90
44229;DHT22;29904;51.058;5.378;2024-03-02T00:57:22;7.10;99.90
44229;DHT22;29904;51.058;5.378;2024-03-02T00:59:51;7.10;99.90
44229;DHT22;29904;51.058;5.378;2024-03-02T01:02:17;7.10;99.90
44229;DHT22;29904;51.058;5.378;2024-03-02T01:04:45;7.10;99.90
44229;DHT22;29904;51.058;5.378;2024-03-02T01:07:12;7.10;99.90
44229;DHT22;29904;51.058;5.378;2024-03-02T01:09:38;7.10;99.90
44229;DHT22;29904;51.058;5.378;2024-03-02T01:12:04;7.10;99.90
44229;DHT22;29904;51.058;5.378;2024-03-02T01:14:31;7.10;99.90
44229;DHT22;29904;51.058;5.378;2024-03-02T01:16:57;7.10;99.90
44229;DHT22;29904;51.058;5.378;2024-03-02T01:19:23;7.10;99.90
44229;DHT22;29904;51.058;5.378;2024-03-02T01:21:49;7.20;99.90
44229;DHT22;29904;51.058;5.378;2024-03-02T01:24:16;7.20;99.90
44229;DHT22;29904;51.058;5.378;2024-03-02T01:26:42;7.20;99.90
44229;DHT22;29904;51.058;5.378;2024-03-02T01:29:07;7.20;99.90
44229;DHT22;29904;51.058;5.378;2024-03-02T01:31:34;7.20;99.90
44229;DHT22;29904;51.058;5.378;2024-03-02T01:34:00;7.20;99.90
44229;DHT22;29904;51.058;5.378;2024-03-02T01:36:25;7.20;99.90
44229;DHT22;29904;51.058;5.378;2024-03-02T01:38:53;7.20;99.90
44229;DHT22;29904;51.058;5.378;2024-03-02T01:41:19;7.20;99.90
44229;DHT22;29904;51.058;5.378;2024-03-02T01:43:44;7.20;99.90
44229;DHT22;29904;51.058;5.378;2024-03-02T01:46:10;7.20;99.90
44229;DHT22;29904;51.058;5.378;2024-03-02T01:48:35;7.20;99.90
44229;DHT22;29904;51.058;5.378;2024-03-02T01:51:01;7.20;99.90
44229;DHT22;29904;51.058;5.378;2024-03-02T01:53:30;7.20;99.90
44229;DHT22;29904;51.058;5.378;2024-03-02T01:55:55;7.20;99.90
44229;DHT22;29904;51.058;5.378;2024-03-02T01:58:21;7.20;99.90
44229;DHT22;29904;51.058;5.378;2024-03-02T02:00:47;7.20;99.90
44229;DHT22;29904;51.058;5.378;2024-03-02T02:03:13;7.20;99.90
44229;DHT22;29904;51.058;5.378;2024-03-02T02:05:39;7.20;99.90
44229;DHT22;29904;51.058;5.378;2024-03-02T02:08:07;7.10;99.90
44229;DHT22;29904;51.058;5.378;2024-03-02T02:10:32;7.10;99.90
44229;DHT22;29904;51.058;5.378;2024-03-02T02:12:58;7.10;99.90
44229;DHT22;29904;51.058;5.378;2024-03-02T02:15:29;7.10;99.90
44229;DHT22;29904;51.058;5.378;2024-03-02T02:17:55;7.10;99.90
44229;DHT22;29904;51.058;5.378;2024-03-02T02:20:21;7.10;99.90
44229;DHT22;29904;51.058;5.378;2024-03-02T02:25:24;7.10;99.90
44229;DHT22;29904;51.058;5.378;2024-03-02T02:27:52;7.10;99.90
44229;DHT22;29904;51.058;5.378;2024-03-02T02:30:22;7.10;99.90
44229;DHT22;29904;51.058;5.378;2024-03-02T02:32:49;7.10;99.90
44229;DHT22;29904;51.058;5.378;2024-03-02T02:35:14;7.10;99.90
44229;DHT22;29904;51.058;5.378;2024-03-02T02:37:40;7.10;99.90
44229;DHT22;29904;51.058;5.378;2024-03-02T02:40:06;7.10;99.90
44229;DHT22;29904;51.058;5.378;2024-03-02T02:42:34;7.10;99.90
44229;DHT22;29904;51.058;5.378;2024-03-02T02:45:00;7.10;99.90
44229;DHT22;29904;51.058;5.378;2024-03-02T02:47:25;7.10;99.90
44229;DHT22;29904;51.058;5.378;2024-03-02T02:49:51;7.00;99.90
44229;DHT22;29904;51.058;5.378;2024-03-02T02:52:17;7.10;99.90
44229;DHT22;29904;51.058;5.378;2024-03-02T02:54:43;7.00;99.90
44229;DHT22;29904;51.058;5.378;2024-03-02T02:57:09;7.00;99.90
44229;DHT22;29904;51.058;5.378;2024-03-02T02:59:35;7.00;99.90
44229;DHT22;29904;51.058;5.378;2024-03-02T03:02:00;7.00;99.90
44229;DHT22;29904;51.058;5.378;2024-03-02T03:04:26;7.00;99.90
44229;DHT22;29904;51.058;5.378;2024-03-02T03:06:52;7.00;99.90
44229;DHT22;29904;51.058;5.378;2024-03-02T03:09:17;7.00;99.90
44229;DHT22;29904;51.058;5.378;2024-03-02T03:11:43;7.00;99.90
44229;DHT22;29904;51.058;5.378;2024-03-02T03:14:09;7.00;99.90
44229;DHT22;29904;51.058;5.378;2024-03-02T03:16:35;7.00;99.90
44229;DHT22;29904;51.058;5.378;2024-03-02T03:19:02;6.90;99.90
44229;DHT22;29904;51.058;5.378;2024-03-02T03:21:28;6.90;99.90
44229;DHT22;29904;51.058;5.378;2024-03-02T03:23:54;7.00;99.90
44229;DHT22;29904;51.058;5.378;2024-03-02T03:26:21;6.90;99.90
44229;DHT22;29904;51.058;5.378;2024-03-02T03:28:47;7.00;99.90
44229;DHT22;29904;51.058;5.378;2024-03-02T03:31:12;6.90;99.90
44229;DHT22;29904;51.058;5.378;2024-03-02T03:33:38;6.90;99.90
44229;DHT22;29904;51.058;5.378;2024-03-02T03:36:03;6.90;99.90
44229;DHT22;29904;51.058;5.378;2024-03-02T03:38:29;6.90;99.90
44229;DHT22;29904;51.058;5.378;2024-03-02T03:40:55;6.90;99.90
44229;DHT22;29904;51.058;5.378;2024-03-02T03:43:21;6.80;99.90
44229;DHT22;29904;51.058;5.378;2024-03-02T03:45:46;6.80;99.90
44229;DHT22;29904;51.058;5.378;2024-03-02T03:48:14;6.80;99.90
44229;DHT22;29904;51.058;5.378;2024-03-02T03:50:39;6.80;99.90
44229;DHT22;29904;51.058;5.378;2024-03-02T03:53:05;6.70;99.90
44229;DHT22;29904;51.058;5.378;2024-03-02T03:55:32;6.60;99.90
44229;DHT22;29904;51.058;5.378;2024-03-02T03:57:58;6.60;99.90
44229;DHT22;29904;51.058;5.378;2024-03-02T04:00:24;6.50;99.90
44229;DHT22;29904;51.058;5.378;2024-03-02T04:02:51;6.50;99.90
44229;DHT22;29904;51.058;5.378;2024-03-02T04:05:17;6.50;99.90
44229;DHT22;29904;51.058;5.378;2024-03-02T04:07:43;6.50;99.90
44229;DHT22;29904;51.058;5.378;2024-03-02T04:10:11;6.60;99.90
44229;DHT22;29904;51.058;5.378;2024-03-02T04:12:37;6.70;99.90
44229;DHT22;29904;51.058;5.378;2024-03-02T04:15:03;6.70;99.90
44229;DHT22;29904;51.058;5.378;2024-03-02T04:17:31;6.80;99.90
44229;DHT22;29904;51.058;5.378;2024-03-02T04:19:57;6.80;99.90
44229;DHT22;29904;51.058;5.378;2024-03-02T04:22:22;6.80;99.90
44229;DHT22;29904;51.058;5.378;2024-03-02T04:24:48;6.80;99.90
44229;DHT22;29904;51.058;5.378;2024-03-02T04:27:15;6.80;99.90
44229;DHT22;29904;51.058;5.378;2024-03-02T04:29:41;6.70;99.90
44229;DHT22;29904;51.058;5.378;2024-03-02T04:32:06;6.60;99.90
44229;DHT22;29904;51.058;5.378;2024-03-02T04:34:34;6.60;99.90
44229;DHT22;29904;51.058;5.378;2024-03-02T04:37:00;6.50;99.90
44229;DHT22;29904;51.058;5.378;2024-03-02T04:39:25;6.40;99.90
44229;DHT22;29904;51.058;5.378;2024-03-02T04:41:51;6.40;99.90
44229;DHT22;29904;51.058;5.378;2024-03-02T04:44:17;6.30;99.90
44229;DHT22;29904;51.058;5.378;2024-03-02T04:46:42;6.30;99.90
44229;DHT22;29904;51.058;5.378;2024-03-02T04:49:10;6.30;99.90
44229;DHT22;29904;51.058;5.378;2024-03-02T04:51:35;6.20;99.90
44229;DHT22;29904;51.058;5.378;2024-03-02T04:54:01;6.20;99.90
44229;DHT22;29904;51.058;5.378;2024-03-02T04:56:29;6.20;99.90
44229;DHT22;29904;51.058;5.378;2024-03-02T04:58:57;6.30;99.90
44229;DHT22;29904;51.058;5.378;2024-03-02T05:01:23;6.30;99.90
44229;DHT22;29904;51.058;5.378;2024-03-02T05:03:50;6.40;99.90
44229;DHT22;29904;51.058;5.378;2024-03-02T05:06:16;6.50;99.90
44229;DHT22;29904;51.058;5.378;2024-03-02T05:08:41;6.50;99.90
44229;DHT22;29904;51.058;5.378;2024-03-02T05:11:10;6.60;99.90
44229;DHT22;29904;51.058;5.378;2024-03-02T05:13:54;6.60;99.90
44229;DHT22;29904;51.058;5.378;2024-03-02T05:16:19;6.50;99.90
44229;DHT22;29904;51.058;5.378;2024-03-02T05:18:45;6.40;99.90
44229;DHT22;29904;51.058;5.378;2024-03-02T05:21:11;6.30;99.90
44229;DHT22;29904;51.058;5.378;2024-03-02T05:23:36;6.20;99.90
44229;DHT22;29904;51.058;5.378;2024-03-02T05:26:02;6.10;99.90
44229;DHT22;29904;51.058;5.378;2024-03-02T05:28:28;6.00;99.90
44229;DHT22;29904;51.058;5.378;2024-03-02T05:30:56;6.00;99.90
44229;DHT22;29904;51.058;5.378;2024-03-02T05:33:21;6.00;99.90
44229;DHT22;29904;51.058;5.378;2024-03-02T05:35:48;5.90;99.90
44229;DHT22;29904;51.058;5.378;2024-03-02T05:38:15;5.80;99.90
44229;DHT22;29904;51.058;5.378;2024-03-02T05:40:43;5.80;99.90
44229;DHT22;29904;51.058;5.378;2024-03-02T05:43:08;5.80;99.90
44229;DHT22;29904;51.058;5.378;2024-03-02T05:45:34;5.80;99.90
44229;DHT22;29904;51.058;5.378;2024-03-02T05:47:59;5.80;99.90
44229;DHT22;29904;51.058;5.378;2024-03-02T05:50:25;5.70;99.90
44229;DHT22;29904;51.058;5.378;2024-03-02T05:52:50;5.70;99.90
44229;DHT22;29904;51.058;5.378;2024-03-02T05:55:18;5.70;99.90
44229;DHT22;29904;51.058;5.378;2024-03-02T05:57:44;5.60;99.90
44229;DHT22;29904;51.058;5.378;2024-03-02T06:00:09;5.70;99.90
44229;DHT22;29904;51.058;5.378;2024-03-02T06:02:39;5.70;99.90
44229;DHT22;29904;51.058;5.378;2024-03-02T06:05:04;5.70;99.90
44229;DHT22;29904;51.058;5.378;2024-03-02T06:07:30;5.70;99.90
44229;DHT22;29904;51.058;5.378;2024-03-02T06:09:55;5.70;99.90
44229;DHT22;29904;51.058;5.378;2024-03-02T06:12:23;5.70;99.90
44229;DHT22;29904;51.058;5.378;2024-03-02T06:14:49;5.70;99.90
44229;DHT22;29904;51.058;5.378;2024-03-02T06:17:15;5.80;99.90
44229;DHT22;29904;51.058;5.378;2024-03-02T06:19:40;5.80;99.90
44229;DHT22;29904;51.058;5.378;2024-03-02T06:22:06;5.70;99.90
44229;DHT22;29904;51.058;5.378;2024-03-02T06:24:31;5.70;99.90
44229;DHT22;29904;51.058;5.378;2024-03-02T06:26:57;5.70;99.90
44229;DHT22;29904;51.058;5.378;2024-03-02T06:29:22;5.70;99.90
44229;DHT22;29904;51.058;5.378;2024-03-02T06:31:48;5.70;99.90
44229;DHT22;29904;51.058;5.378;2024-03-02T06:34:15;5.70;99.90
44229;DHT22;29904;51.058;5.378;2024-03-02T06:36:41;5.80;99.90
44229;DHT22;29904;51.058;5.378;2024-03-02T06:39:08;5.80;99.90
44229;DHT22;29904;51.058;5.378;2024-03-02T06:41:33;5.80;99.90
44229;DHT22;29904;51.058;5.378;2024-03-02T06:43:59;5.80;99.90
44229;DHT22;29904;51.058;5.378;2024-03-02T06:46:25;5.80;99.90
44229;DHT22;29904;51.058;5.378;2024-03-02T06:48:50;5.90;99.90
44229;DHT22;29904;51.058;5.378;2024-03-02T06:51:16;5.90;99.90
44229;DHT22;29904;51.058;5.378;2024-03-02T06:53:42;6.00;99.90
44229;DHT22;29904;51.058;5.378;2024-03-02T06:56:07;6.10;99.90
44229;DHT22;29904;51.058;5.378;2024-03-02T06:58:33;6.20;99.90
44229;DHT22;29904;51.058;5.378;2024-03-02T07:00:59;6.40;99.90
44229;DHT22;29904;51.058;5.378;2024-03-02T07:03:25;6.60;99.90
44229;DHT22;29904;51.058;5.378;2024-03-02T07:05:51;6.80;99.90
44229;DHT22;29904;51.058;5.378;2024-03-02T07:08:17;6.90;99.90
44229;DHT22;29904;51.058;5.378;2024-03-02T07:10:42;7.00;99.90
44229;DHT22;29904;51.058;5.378;2024-03-02T07:13:08;6.90;99.90
44229;DHT22;29904;51.058;5.378;2024-03-02T07:15:33;6.80;99.90
44229;DHT22;29904;51.058;5.378;2024-03-02T07:18:15;6.60;99.90
44229;DHT22;29904;51.058;5.378;2024-03-02T07:20:40;6.50;99.90
44229;DHT22;29904;51.058;5.378;2024-03-02T07:23:08;6.50;99.90
44229;DHT22;29904;51.058;5.378;2024-03-02T07:25:34;6.40;99.90
44229;DHT22;29904;51.058;5.378;2024-03-02T07:28:00;6.40;99.90
44229;DHT22;29904;51.058;5.378;2024-03-02T07:30:25;6.30;99.90
44229;DHT22;29904;51.058;5.378;2024-03-02T07:32:51;6.30;99.90
44229;DHT22;29904;51.058;5.378;2024-03-02T07:35:16;6.30;99.90
44229;DHT22;29904;51.058;5.378;2024-03-02T07:37:43;6.30;99.90
44229;DHT22;29904;51.058;5.378;2024-03-02T07:40:09;6.20;99.90
44229;DHT22;29904;51.058;5.378;2024-03-02T07:42:37;6.20;99.90
44229;DHT22;29904;51.058;5.378;2024-03-02T07:45:04;6.20;99.90
44229;DHT22;29904;51.058;5.378;2024-03-02T07:47:30;6.20;99.90
44229;DHT22;29904;51.058;5.378;2024-03-02T07:49:55;6.20;99.90
44229;DHT22;29904;51.058;5.378;2024-03-02T07:52:21;6.20;99.90
44229;DHT22;29904;51.058;5.378;2024-03-02T07:54:46;6.30;99.90
44229;DHT22;29904;51.058;5.378;2024-03-02T07:57:12;6.40;99.90
44229;DHT22;29904;51.058;5.378;2024-03-02T07:59:39;6.50;99.90
44229;DHT22;29904;51.058;5.378;2024-03-02T08:02:05;6.80;99.90
44229;DHT22;29904;51.058;5.378;2024-03-02T08:04:31;6.90;99.90
44229;DHT22;29904;51.058;5.378;2024-03-02T08:06:57;7.10;99.90
44229;DHT22;29904;51.058;5.378;2024-03-02T08:09:22;7.20;99.90
44229;DHT22;29904;51.058;5.378;2024-03-02T08:11:48;7.40;99.90
44229;DHT22;29904;51.058;5.378;2024-03-02T08:14:15;7.60;99.90
44229;DHT22;29904;51.058;5.378;2024-03-02T08:16:41;7.70;99.90
44229;DHT22;29904;51.058;5.378;2024-03-02T08:19:07;7.80;99.90
44229;DHT22;29904;51.058;5.378;2024-03-02T08:21:32;7.90;99.90
44229;DHT22;29904;51.058;5.378;2024-03-02T08:24:00;8.00;99.90
44229;DHT22;29904;51.058;5.378;2024-03-02T08:26:27;8.10;99.90
44229;DHT22;29904;51.058;5.378;2024-03-02T08:28:57;8.20;99.90
44229;DHT22;29904;51.058;5.378;2024-03-02T08:31:23;8.40;99.90
44229;DHT22;29904;51.058;5.378;2024-03-02T08:33:48;8.50;99.90
44229;DHT22;29904;51.058;5.378;2024-03-02T08:36:16;8.50;99.90
44229;DHT22;29904;51.058;5.378;2024-03-02T08:38:41;8.50;99.90
44229;DHT22;29904;51.058;5.378;2024-03-02T08:41:07;8.50;99.90
44229;DHT22;29904;51.058;5.378;2024-03-02T08:43:33;8.60;99.90
44229;DHT22;29904;51.058;5.378;2024-03-02T08:45:59;8.60;99.90
44229;DHT22;29904;51.058;5.378;2024-03-02T08:48:25;8.60;99.90
44229;DHT22;29904;51.058;5.378;2024-03-02T08:50:50;8.60;99.90
44229;DHT22;29904;51.058;5.378;2024-03-02T08:53:16;8.70;99.90
44229;DHT22;29904;51.058;5.378;2024-03-02T08:55:47;8.70;99.90
44229;DHT22;29904;51.058;5.378;2024-03-02T08:58:13;8.70;99.90
44229;DHT22;29904;51.058;5.378;2024-03-02T09:00:39;8.80;99.90
44229;DHT22;29904;51.058;5.378;2024-03-02T09:03:04;8.90;99.90
44229;DHT22;29904;51.058;5.378;2024-03-02T09:05:32;9.00;99.90
44229;DHT22;29904;51.058;5.378;2024-03-02T09:07:57;9.00;99.90
44229;DHT22;29904;51.058;5.378;2024-03-02T09:10:23;9.00;99.90
44229;DHT22;29904;51.058;5.378;2024-03-02T09:12:50;9.10;99.90
44229;DHT22;29904;51.058;5.378;2024-03-02T09:15:16;9.20;99.90
44229;DHT22;29904;51.058;5.378;2024-03-02T09:17:42;9.20;99.90
44229;DHT22;29904;51.058;5.378;2024-03-02T09:20:10;9.40;99.90
44229;DHT22;29904;51.058;5.378;2024-03-02T09:22:36;9.60;99.90
44229;DHT22;29904;51.058;5.378;2024-03-02T09:25:01;9.60;99.90
44229;DHT22;29904;51.058;5.378;2024-03-02T09:27:29;9.70;99.90
44229;DHT22;29904;51.058;5.378;2024-03-02T09:29:56;9.70;99.90
44229;DHT22;29904;51.058;5.378;2024-03-02T09:32:22;9.70;99.90
44229;DHT22;29904;51.058;5.378;2024-03-02T09:34:48;9.80;99.90
44229;DHT22;29904;51.058;5.378;2024-03-02T09:37:14;9.80;99.90
44229;DHT22;29904;51.058;5.378;2024-03-02T09:39:40;9.90;99.90
44229;DHT22;29904;51.058;5.378;2024-03-02T09:42:05;10.00;99.90
44229;DHT22;29904;51.058;5.378;2024-03-02T09:44:33;10.20;99.90
44229;DHT22;29904;51.058;5.378;2024-03-02T09:46:59;10.40;99.90
44229;DHT22;29904;51.058;5.378;2024-03-02T09:49:24;10.60;99.90
44229;DHT22;29904;51.058;5.378;2024-03-02T09:51:50;10.80;99.90
44229;DHT22;29904;51.058;5.378;2024-03-02T09:54:16;10.90;99.90
44229;DHT22;29904;51.058;5.378;2024-03-02T09:56:41;11.00;99.90
44229;DHT22;29904;51.058;5.378;2024-03-02T09:59:09;11.00;99.90
44229;DHT22;29904;51.058;5.378;2024-03-02T10:01:34;10.80;99.90
44229;DHT22;29904;51.058;5.378;2024-03-02T10:04:00;10.90;99.90
44229;DHT22;29904;51.058;5.378;2024-03-02T10:06:28;11.10;99.90
44229;DHT22;29904;51.058;5.378;2024-03-02T10:08:54;11.30;99.90
44229;DHT22;29904;51.058;5.378;2024-03-02T10:11:27;11.40;99.90
44229;DHT22;29904;51.058;5.378;2024-03-02T10:14:09;11.30;99.90
44229;DHT22;29904;51.058;5.378;2024-03-02T10:16:36;11.30;99.90
44229;DHT22;29904;51.058;5.378;2024-03-02T10:21:39;11.60;99.90
44229;DHT22;29904;51.058;5.378;2024-03-02T10:24:08;11.90;99.90
44229;DHT22;29904;51.058;5.378;2024-03-02T10:26:34;12.10;99.90
44229;DHT22;29904;51.058;5.378;2024-03-02T10:28:59;12.20;99.90
44229;DHT22;29904;51.058;5.378;2024-03-02T10:31:25;12.10;99.90
44229;DHT22;29904;51.058;5.378;2024-03-02T10:33:57;11.90;99.90
44229;DHT22;29904;51.058;5.378;2024-03-02T10:36:23;11.70;99.90
44229;DHT22;29904;51.058;5.378;2024-03-02T10:38:51;11.60;99.90
44229;DHT22;29904;51.058;5.378;2024-03-02T10:41:23;11.60;99.90
44229;DHT22;29904;51.058;5.378;2024-03-02T10:43:49;11.70;99.90
44229;DHT22;29904;51.058;5.378;2024-03-02T10:46:16;11.90;99.90
44229;DHT22;29904;51.058;5.378;2024-03-02T10:48:44;12.00;99.90
44229;DHT22;29904;51.058;5.378;2024-03-02T10:51:11;12.10;99.90
44229;DHT22;29904;51.058;5.378;2024-03-02T10:53:36;12.20;99.90
44229;DHT22;29904;51.058;5.378;2024-03-02T10:56:02;12.20;99.90
44229;DHT22;29904;51.058;5.378;2024-03-02T10:58:31;12.30;99.90
44229;DHT22;29904;51.058;5.378;2024-03-02T11:00:58;12.20;99.90
44229;DHT22;29904;51.058;5.378;2024-03-02T11:03:25;12.20;99.90
44229;DHT22;29904;51.058;5.378;2024-03-02T11:05:51;12.20;99.90
44229;DHT22;29904;51.058;5.378;2024-03-02T11:08:17;12.40;99.90
44229;DHT22;29904;51.058;5.378;2024-03-02T11:10:51;12.40;99.90
44229;DHT22;29904;51.058;5.378;2024-03-02T11:13:19;12.40;99.90
44229;DHT22;29904;51.058;5.378;2024-03-02T11:15:46;12.50;99.90
44229;DHT22;29904;51.058;5.378;2024-03-02T11:18:12;12.60;99.90
44229;DHT22;29904;51.058;5.378;2024-03-02T11:20:38;12.80;99.90
44229;DHT22;29904;51.058;5.378;2024-03-02T11:23:06;13.00;99.90
44229;DHT22;29904;51.058;5.378;2024-03-02T11:25:33;13.10;99.90
44229;DHT22;29904;51.058;5.378;2024-03-02T11:27:59;13.10;99.90
44229;DHT22;29904;51.058;5.378;2024-03-02T11:33:02;13.30;99.90
44229;DHT22;29904;51.058;5.378;2024-03-02T11:35:35;13.40;99.90
44229;DHT22;29904;51.058;5.378;2024-03-02T11:38:01;13.50;99.90
44229;DHT22;29904;51.058;5.378;2024-03-02T11:40:28;13.60;99.90
44229;DHT22;29904;51.058;5.378;2024-03-02T11:42:54;13.80;99.90
44229;DHT22;29904;51.058;5.378;2024-03-02T11:45:24;13.70;99.90
44229;DHT22;29904;51.058;5.378;2024-03-02T11:47:50;13.60;99.90
44229;DHT22;29904;51.058;5.378;2024-03-02T11:50:15;13.60;99.90
44229;DHT22;29904;51.058;5.378;2024-03-02T11:52:41;13.60;99.90
44229;DHT22;29904;51.058;5.378;2024-03-02T11:55:07;13.60;99.90
44229;DHT22;29904;51.058;5.378;2024-03-02T11:57:35;13.70;99.90
44229;DHT22;29904;51.058;5.378;2024-03-02T12:00:00;13.60;99.90
44229;DHT22;29904;51.058;5.378;2024-03-02T12:02:28;13.50;99.90
44229;DHT22;29904;51.058;5.378;2024-03-02T12:04:54;13.50;99.90
44229;DHT22;29904;51.058;5.378;2024-03-02T12:07:20;13.60;99.90
44229;DHT22;29904;51.058;5.378;2024-03-02T12:09:47;13.70;99.90
44229;DHT22;29904;51.058;5.378;2024-03-02T12:12:13;13.90;99.90
44229;DHT22;29904;51.058;5.378;2024-03-02T12:14:49;14.10;99.90
44229;DHT22;29904;51.058;5.378;2024-03-02T12:17:14;14.30;99.90
44229;DHT22;29904;51.058;5.378;2024-03-02T12:19:40;14.40;99.90
44229;DHT22;29904;51.058;5.378;2024-03-02T12:22:06;14.30;99.90
44229;DHT22;29904;51.058;5.378;2024-03-02T12:24:31;14.20;99.90
44229;DHT22;29904;51.058;5.378;2024-03-02T12:26:57;14.30;99.90
44229;DHT22;29904;51.058;5.378;2024-03-02T12:29:23;14.20;99.90
44229;DHT22;29904;51.058;5.378;2024-03-02T12:31:50;14.10;99.90
44229;DHT22;29904;51.058;5.378;2024-03-02T12:34:21;14.10;99.90
44229;DHT22;29904;51.058;5.378;2024-03-02T12:36:46;14.30;99.90
44229;DHT22;29904;51.058;5.378;2024-03-02T12:39:15;14.30;99.90
44229;DHT22;29904;51.058;5.378;2024-03-02T12:41:42;14.30;99.90
44229;DHT22;29904;51.058;5.378;2024-03-02T12:44:08;14.30;99.90
44229;DHT22;29904;51.058;5.378;2024-03-02T12:46:34;14.40;99.90
44229;DHT22;29904;51.058;5.378;2024-03-02T12:49:07;14.40;99.90
44229;DHT22;29904;51.058;5.378;2024-03-02T12:51:32;14.40;99.90
44229;DHT22;29904;51.058;5.378;2024-03-02T12:53:58;14.50;99.90
44229;DHT22;29904;51.058;5.378;2024-03-02T12:56:24;14.60;99.90
44229;DHT22;29904;51.058;5.378;2024-03-02T12:58:53;14.70;99.90
44229;DHT22;29904;51.058;5.378;2024-03-02T13:01:18;14.80;99.90
44229;DHT22;29904;51.058;5.378;2024-03-02T13:03:44;14.80;99.90
44229;DHT22;29904;51.058;5.378;2024-03-02T13:06:10;14.60;99.90
44229;DHT22;29904;51.058;5.378;2024-03-02T13:08:36;14.40;99.90
44229;DHT22;29904;51.058;5.378;2024-03-02T13:11:03;14.40;99.90
44229;DHT22;29904;51.058;5.378;2024-03-02T13:13:32;14.40;99.90
44229;DHT22;29904;51.058;5.378;2024-03-02T13:15:58;14.20;99.90
44229;DHT22;29904;51.058;5.378;2024-03-02T13:18:23;14.30;99.90
44229;DHT22;29904;51.058;5.378;2024-03-02T13:20:49;14.30;99.90
44229;DHT22;29904;51.058;5.378;2024-03-02T13:23:14;14.30;99.90
44229;DHT22;29904;51.058;5.378;2024-03-02T13:25:42;14.40;99.90
44229;DHT22;29904;51.058;5.378;2024-03-02T13:28:08;14.30;99.90
44229;DHT22;29904;51.058;5.378;2024-03-02T13:30:34;14.20;99.90
44229;DHT22;29904;51.058;5.378;2024-03-02T13:33:01;14.10;99.90
44229;DHT22;29904;51.058;5.378;2024-03-02T13:35:27;14.10;99.90
44229;DHT22;29904;51.058;5.378;2024-03-02T13:37:52;14.20;99.90
44229;DHT22;29904;51.058;5.378;2024-03-02T13:40:18;14.50;99.90
44229;DHT22;29904;51.058;5.378;2024-03-02T13:42:45;15.00;99.90
44229;DHT22;29904;51.058;5.378;2024-03-02T13:45:12;15.30;99.90
44229;DHT22;29904;51.058;5.378;2024-03-02T13:47:37;15.50;99.90
44229;DHT22;29904;51.058;5.378;2024-03-02T13:50:03;15.70;99.90
44229;DHT22;29904;51.058;5.378;2024-03-02T13:52:30;15.80;99.90
44229;DHT22;29904;51.058;5.378;2024-03-02T13:54:58;15.60;99.90
44229;DHT22;29904;51.058;5.378;2024-03-02T13:57:23;15.30;99.90
44229;DHT22;29904;51.058;5.378;2024-03-02T13:59:49;15.10;99.90
44229;DHT22;29904;51.058;5.378;2024-03-02T14:02:17;14.90;99.90
44229;DHT22;29904;51.058;5.378;2024-03-02T14:04:43;14.70;99.90
44229;DHT22;29904;51.058;5.378;2024-03-02T14:07:09;14.80;99.90
44229;DHT22;29904;51.058;5.378;2024-03-02T14:09:37;14.80;99.90
44229;DHT22;29904;51.058;5.378;2024-03-02T14:12:03;14.80;99.90
44229;DHT22;29904;51.058;5.378;2024-03-02T14:14:29;14.70;99.90
44229;DHT22;29904;51.058;5.378;2024-03-02T14:16:55;14.70;99.90
44229;DHT22;29904;51.058;5.378;2024-03-02T14:19:30;14.80;99.90
44229;DHT22;29904;51.058;5.378;2024-03-02T14:21:56;14.90;99.90
44229;DHT22;29904;51.058;5.378;2024-03-02T14:24:22;14.90;99.90
44229;DHT22;29904;51.058;5.378;2024-03-02T14:26:51;14.80;99.90
44229;DHT22;29904;51.058;5.378;2024-03-02T14:29:19;14.60;99.90
44229;DHT22;29904;51.058;5.378;2024-03-02T14:31:46;14.40;99.90
44229;DHT22;29904;51.058;5.378;2024-03-02T14:34:15;14.30;99.90
44229;DHT22;29904;51.058;5.378;2024-03-02T14:36:43;14.20;99.90
44229;DHT22;29904;51.058;5.378;2024-03-02T14:39:10;14.10;99.90
44229;DHT22;29904;51.058;5.378;2024-03-02T14:41:38;14.10;99.90
44229;DHT22;29904;51.058;5.378;2024-03-02T14:44:04;14.10;99.90
44229;DHT22;29904;51.058;5.378;2024-03-02T14:46:30;14.10;99.90
44229;DHT22;29904;51.058;5.378;2024-03-02T14:48:55;14.00;99.90
44229;DHT22;29904;51.058;5.378;2024-03-02T14:51:21;13.90;99.90
44229;DHT22;29904;51.058;5.378;2024-03-02T14:53:47;13.90;99.90
44229;DHT22;29904;51.058;5.378;2024-03-02T14:56:12;13.90;99.90
44229;DHT22;29904;51.058;5.378;2024-03-02T14:58:40;14.00;99.90
44229;DHT22;29904;51.058;5.378;2024-03-02T15:01:05;13.90;99.90
44229;DHT22;29904;51.058;5.378;2024-03-02T15:03:31;13.90;99.90
44229;DHT22;29904;51.058;5.378;2024-03-02T15:05:59;13.80;99.90
44229;DHT22;29904;51.058;5.378;2024-03-02T15:08:24;13.80;99.90
44229;DHT22;29904;51.058;5.378;2024-03-02T15:10:50;13.80;99.90
44229;DHT22;29904;51.058;5.378;2024-03-02T15:13:15;13.70;99.90
44229;DHT22;29904;51.058;5.378;2024-03-02T15:15:41;13.70;99.90
44229;DHT22;29904;51.058;5.378;2024-03-02T15:18:07;13.70;99.90
44229;DHT22;29904;51.058;5.378;2024-03-02T15:20:34;13.70;99.90
44229;DHT22;29904;51.058;5.378;2024-03-02T15:22:59;13.60;99.90
44229;DHT22;29904;51.058;5.378;2024-03-02T15:25:25;13.60;99.90
44229;DHT22;29904;51.058;5.378;2024-03-02T15:27:50;13.50;99.90
44229;DHT22;29904;51.058;5.378;2024-03-02T15:30:16;13.50;99.90
44229;DHT22;29904;51.058;5.378;2024-03-02T15:32:42;13.40;99.90
44229;DHT22;29904;51.058;5.378;2024-03-02T15:35:09;13.30;99.90
44229;DHT22;29904;51.058;5.378;2024-03-02T15:37:35;13.30;99.90
44229;DHT22;29904;51.058;5.378;2024-03-02T15:40:01;13.30;99.90
44229;DHT22;29904;51.058;5.378;2024-03-02T15:42:32;13.30;99.90
44229;DHT22;29904;51.058;5.378;2024-03-02T15:44:58;13.20;99.90
44229;DHT22;29904;51.058;5.378;2024-03-02T15:47:24;13.20;99.90